Date,TemperatureHighF,TemperatureAvgF,TemperatureLowF,DewpointHighF,DewpointAvgF,DewpointLowF,HumidityHigh,HumidityAvg,HumidityLow,PressureMaxIn,PressureMinIn,WindSpeedMaxMPH,WindSpeedAvgMPH,GustSpeedMaxMPH,PrecipitationSumIn
2012-1-1,47,38,29,-100,-100,-100,0,0,100,20.00,20.00,19,4,19,0.00
2012-1-2,44,39,31,-100,-100,-100,0,0,100,20.00,20.00,31,8,31,0.00
2012-1-3,45,41,38,-100,-100,-100,0,0,100,20.00,20.00,15,7,15,0.00
2012-1-4,46,43,40,-100,-100,-100,0,0,100,20.00,20.00,29,10,29,0.00
2012-1-5,42,39,35,-100,-100,-100,0,0,100,20.00,20.00,24,6,24,0.00
2012-1-6,53,35,31,-100,-100,-100,0,0,100,20.00,20.00,8,3,15,0.00
2012-1-7,38,35,31,-100,-100,-100,0,0,100,20.00,20.00,10,3,15,0.00
2012-1-8,54,41,34,-100,-100,-100,0,0,100,20.00,20.00,15,6,15,0.00
2012-1-9,44,41,37,-100,-100,-100,0,0,100,20.00,20.00,16,6,16,0.00
2012-1-10,55,37,24,-100,-100,-100,0,0,100,20.00,20.00,14,4,15,0.00
2012-1-11,44,27,21,-100,-100,-100,0,0,100,20.00,20.00,5,2,15,0.00
2012-1-12,45,29,20,-100,-100,-100,0,0,100,20.00,20.00,6,2,15,0.00
2012-1-13,35,27,20,-100,-100,-100,0,0,100,20.00,20.00,5,1,15,0.00
2012-1-14,33,29,26,-100,-100,-100,0,0,100,20.00,20.00,21,4,21,0.00
2012-1-15,37,26,20,-100,-100,-100,0,0,100,20.00,20.00,10,2,15,0.00
2012-1-16,28,25,19,-100,-100,-100,0,0,100,20.00,20.00,12,5,15,0.00
2012-1-17,32,27,22,-100,-100,-100,0,0,100,20.00,20.00,14,2,21,0.00
2012-1-18,33,24,19,-100,-100,-100,0,0,100,20.00,20.00,9,2,15,0.00
2012-1-19,27,22,18,-100,-100,-100,0,0,100,20.00,20.00,5,0,15,0.00
2012-1-20,34,29,22,-100,-100,-100,0,0,100,20.00,20.00,22,4,22,0.00
2012-1-21,40,34,30,-100,-100,-100,0,0,100,20.00,20.00,18,7,18,0.00
2012-1-22,36,33,30,-100,-100,-100,0,0,100,20.00,20.00,23,8,23,0.00
2012-1-23,50,36,29,-100,-100,-100,0,0,100,20.00,20.00,15,5,15,0.00
2012-1-24,47,37,29,-100,-100,-100,0,0,100,20.00,20.00,29,10,29,0.00
2012-1-25,42,37,32,-100,-100,-100,0,0,100,20.00,20.00,17,6,17,0.00
2012-1-26,50,37,26,-100,-100,-100,0,0,100,20.00,20.00,29,9,29,0.00
2012-1-27,56,33,25,-100,-100,-100,0,0,100,20.00,20.00,6,2,15,0.00
2012-1-28,42,35,27,-100,-100,-100,0,0,100,20.00,20.00,20,6,20,0.00
2012-1-29,44,41,35,-100,-100,-100,0,0,100,20.00,20.00,23,9,23,0.00
2012-1-30,42,39,36,-100,-100,-100,0,0,100,20.00,20.00,17,6,17,0.00
2012-1-31,48,40,37,-100,-100,-100,0,0,100,20.00,20.00,14,7,14,0.00
2012-2-1,68,40,30,-100,-100,-100,0,0,100,20.00,20.00,13,4,13,0.00
2012-2-2,55,32,28,-100,-100,-100,0,0,100,20.00,20.00,5,1,7,0.00
2012-2-3,59,43,29,-100,-100,-100,0,0,100,20.00,20.00,8,3,8,0.00
2012-2-4,55,38,24,-100,-100,-100,0,0,100,20.00,20.00,10,3,10,0.00
2012-2-5,62,37,24,-100,-100,-100,0,0,100,20.00,20.00,8,2,8,0.00
2012-2-6,62,36,24,-100,-100,-100,0,0,100,20.00,20.00,12,3,12,0.00
2012-2-7,68,42,25,-100,-100,-100,0,0,100,0.00,40.00,16,4,16,0.00
2012-2-8,45,40,37,-100,-100,-100,0,0,100,0.00,40.00,13,6,13,0.00
2012-2-9,43,40,37,-100,-100,-100,0,0,100,20.00,20.00,11,3,11,0.00
2012-2-10,52,43,37,-100,-100,-100,0,0,100,20.00,20.00,19,4,19,0.00
2012-2-11,50,40,38,-100,-100,-100,0,0,100,20.00,20.00,19,8,19,0.00
2012-2-12,45,40,37,-100,-100,-100,0,0,100,20.00,20.00,9,2,9,0.00
2012-2-13,43,38,35,-100,-100,-100,0,0,100,20.00,20.00,8,2,8,0.00
2012-2-14,40,34,28,-100,-100,-100,0,0,100,20.00,20.00,13,5,13,0.00
2012-2-15,43,33,26,-100,-100,-100,0,0,100,20.00,20.00,8,2,8,0.00
2012-2-16,39,35,29,-100,-100,-100,0,0,100,20.00,20.00,12,4,12,0.00
2012-2-17,45,38,34,-100,-100,-100,0,0,100,20.00,20.00,27,7,27,0.00
2012-2-18,38,36,34,-100,-100,-100,0,0,100,20.00,20.00,27,11,27,0.00
2012-2-19,41,33,28,-100,-100,-100,0,0,100,20.00,20.00,13,4,13,0.00
2012-2-20,40,34,28,-100,-100,-100,0,0,100,20.00,20.00,12,4,12,0.00
2012-2-21,43,40,38,-100,-100,-100,0,0,100,20.00,20.00,13,4,13,0.00
2012-2-22,55,44,36,-100,-100,-100,0,0,100,20.00,20.00,31,13,31,0.00
2012-2-27,55,35,25,-100,-100,-100,0,0,100,20.00,20.00,9,3,9,0.00
2012-2-28,41,31,24,-100,-100,-100,0,0,100,20.00,20.00,27,9,27,0.00
2012-2-29,35,31,27,-100,-100,-100,0,0,100,20.00,20.00,17,8,17,0.00
2012-3-1,37,31,28,-100,-100,-100,0,0,100,20.00,20.00,10,3,10,0.00
2012-3-2,36,34,28,-100,-100,-100,0,0,100,20.00,20.00,14,6,14,0.00
2012-3-3,52,42,36,-100,-100,-100,0,0,100,20.00,20.00,17,6,17,0.00
2012-3-4,48,42,39,-100,-100,-100,0,0,100,20.00,20.00,24,8,24,0.00
2012-3-5,41,34,27,-100,-100,-100,0,0,100,20.00,20.00,27,9,27,0.00
2012-3-6,62,35,23,-100,-100,-100,0,0,100,20.00,20.00,18,5,18,0.00
2012-3-7,51,34,21,-100,-100,-100,0,0,100,20.00,20.00,7,2,7,0.00
2012-3-8,52,40,24,-100,-100,-100,0,0,100,20.00,20.00,12,4,12,0.00
2012-3-9,43,40,36,-100,-100,-100,0,0,100,20.00,20.00,21,9,21,0.00
2012-3-10,41,38,37,-100,-100,-100,0,0,100,20.00,20.00,21,9,21,0.00
2012-3-11,42,36,32,-100,-100,-100,0,0,100,20.00,20.00,20,10,20,0.00
2012-3-12,37,33,30,-100,-100,-100,0,0,100,20.00,20.00,33,12,33,0.00
2012-3-13,40,32,29,-100,-100,-100,0,0,100,20.00,20.00,21,10,21,0.00
2012-3-14,37,33,28,-100,-100,-100,0,0,100,20.00,20.00,20,8,20,0.00
2012-3-15,51,40,34,-100,-100,-100,0,0,100,20.00,20.00,30,11,30,0.00
2012-3-16,47,39,34,-100,-100,-100,0,0,100,20.00,20.00,25,9,25,0.00
2012-3-17,41,36,30,-100,-100,-100,0,0,100,20.00,20.00,17,6,17,0.00
2012-3-18,52,34,27,-100,-100,-100,0,0,100,20.00,20.00,11,3,11,0.00
2012-3-19,46,32,27,-100,-100,-100,0,0,100,20.00,20.00,10,4,10,0.00
2012-4-12,73,73,73,-100,-100,-100,0,0,100,0.00,40.00,1,1,1,0.00
2012-4-13,73,55,39,-100,-100,-100,0,0,100,20.00,20.00,20,6,20,0.00
2012-4-14,81,49,32,-100,-100,-100,0,0,100,20.00,20.00,15,4,15,0.00
2012-4-15,44,42,40,-100,-100,-100,0,0,100,20.00,20.00,6,2,6,0.00
2012-4-23,73,60,47,-100,-100,-100,0,0,100,20.00,20.00,13,6,13,0.00
2012-4-24,49,47,42,-100,-100,-100,0,0,100,20.00,20.00,13,4,13,0.00
2012-4-25,57,49,45,-100,-100,-100,0,0,100,20.00,20.00,14,6,14,0.00
2012-4-26,55,44,40,-100,-100,-100,0,0,100,20.00,20.00,14,6,14,0.00
2012-4-27,54,45,39,-100,-100,-100,0,0,100,20.00,20.00,15,7,15,0.00
2012-4-28,68,51,40,-100,-100,-100,0,0,100,20.00,20.00,11,4,11,0.00
2012-4-29,63,50,44,-100,-100,-100,0,0,100,20.00,20.00,15,2,15,0.00
2012-4-30,55,44,37,-100,-100,-100,0,0,100,20.00,20.00,24,8,24,0.00
2012-5-1,48,41,36,-100,-100,-100,0,0,100,20.00,20.00,15,4,15,0.00
2012-5-2,65,44,35,-100,-100,-100,0,0,100,20.00,20.00,13,4,13,0.00
2012-5-3,55,44,39,-100,-100,-100,0,0,100,20.00,20.00,10,3,10,0.00
2012-5-4,61,44,36,-100,-100,-100,0,0,100,20.00,20.00,16,6,16,0.00
2012-5-5,63,45,35,-100,-100,-100,0,0,100,20.00,20.00,11,4,11,0.00
2012-5-6,71,51,32,-100,-100,-100,0,0,100,20.00,20.00,13,4,13,0.00
2012-5-7,79,56,36,-100,-100,-100,0,0,100,20.00,20.00,11,3,11,0.00
2012-5-8,76,54,41,-100,-100,-100,0,0,100,20.00,20.00,15,5,15,0.00
2012-5-9,68,50,39,-100,-100,-100,0,0,100,20.00,20.00,25,11,25,0.00
2012-5-10,72,50,36,-100,-100,-100,0,0,100,20.00,20.00,12,4,25,0.00
2012-5-11,78,50,31,-100,-100,-100,0,0,100,20.00,20.00,13,4,13,0.00
2012-5-12,77,58,36,-100,-100,-100,0,0,100,20.00,20.00,11,4,11,0.00
2012-5-13,86,61,37,-100,-100,-100,0,0,100,20.00,20.00,13,4,13,0.00
2012-5-14,85,61,41,-100,-100,-100,0,0,100,20.00,20.00,12,3,12,0.00
2012-5-15,84,59,40,-100,-100,-100,0,0,100,20.00,20.00,16,4,16,0.00
2012-5-16,83,58,41,-100,-100,-100,0,0,100,20.00,20.00,12,5,12,0.00
2012-5-17,79,54,38,-100,-100,-100,0,0,100,20.00,20.00,13,4,13,0.00
2012-5-18,62,50,42,-100,-100,-100,0,0,100,20.00,20.00,15,5,15,0.00
2012-5-19,82,56,36,-100,-100,-100,0,0,100,20.00,20.00,9,2,9,0.00
2012-5-20,55,50,46,-100,-100,-100,0,0,100,20.00,20.00,12,3,12,0.00
2012-5-21,55,50,46,-100,-100,-100,0,0,100,20.00,20.00,15,6,15,0.00
2012-5-22,52,46,44,-100,-100,-100,0,0,100,20.00,20.00,14,7,14,0.00
2012-5-23,50,44,41,-100,-100,-100,0,0,100,20.00,20.00,12,4,12,0.00
2012-5-24,74,52,40,-100,-100,-100,0,0,100,20.00,20.00,13,4,13,0.00
2012-5-25,74,55,38,-100,-100,-100,0,0,100,20.00,20.00,15,3,15,0.00
2012-5-26,90,59,38,-100,-100,-100,0,0,100,20.00,20.00,13,3,13,0.00
2012-5-27,64,53,48,-100,-100,-100,0,0,100,20.00,20.00,14,6,14,0.00
2012-5-28,63,51,45,-100,-100,-100,0,0,100,20.00,20.00,15,4,15,0.00
2012-5-29,66,54,42,-100,-100,-100,0,0,100,20.00,20.00,9,3,9,0.00
2012-5-30,67,54,44,-100,-100,-100,0,0,100,20.00,20.00,10,2,10,0.00
2012-5-31,60,52,48,-100,-100,-100,0,0,100,20.00,20.00,9,2,9,0.00
2012-6-1,63,55,47,-100,-100,-100,0,0,100,20.00,20.00,18,6,18,0.00
2012-6-2,71,52,44,-100,-100,-100,0,0,100,20.00,20.00,11,3,11,0.00
2012-6-3,72,53,42,-100,-100,-100,0,0,100,20.00,20.00,9,3,9,0.00
2012-6-4,56,47,41,-100,-100,-100,0,0,100,20.00,20.00,10,3,10,0.00
2012-6-5,54,47,43,-100,-100,-100,0,0,100,20.00,20.00,14,4,14,0.00
2012-6-6,74,50,40,-100,-100,-100,0,0,100,20.00,20.00,13,4,13,0.00
2012-6-7,58,47,41,-100,-100,-100,0,0,100,20.00,20.00,16,5,16,0.00
2012-6-8,58,48,42,-100,-100,-100,0,0,100,20.00,20.00,15,6,15,0.00
2012-6-9,73,52,42,-100,-100,-100,0,0,100,20.00,20.00,16,4,16,0.00
2012-6-10,73,56,43,-100,-100,-100,0,0,100,20.00,20.00,10,4,10,0.00
2012-6-11,88,60,40,-100,-100,-100,0,0,100,20.00,20.00,12,2,12,0.00
2012-6-12,67,54,48,-100,-100,-100,0,0,100,20.00,20.00,0,0,8,0.00
2012-6-13,48,45,43,-100,-100,-100,0,0,100,0.00,40.00,0,0,8,0.00
2012-6-19,69,56,47,-100,-100,-100,0,0,100,20.00,20.00,0,0,0,0.00
2012-6-20,84,60,39,-100,-100,-100,0,0,100,20.00,20.00,0,0,0,0.00
2012-6-21,79,60,44,-100,-100,-100,0,0,100,20.00,20.00,11,2,11,0.00
2012-6-22,57,49,44,-100,-100,-100,0,0,100,20.00,20.00,8,2,8,0.00
2012-6-23,70,50,41,-100,-100,-100,0,0,100,20.00,20.00,23,4,23,0.00
2012-6-24,80,55,40,-100,-100,-100,0,0,100,20.00,20.00,5,0,5,0.00
2012-6-25,71,54,40,-100,-100,-100,0,0,100,20.00,20.00,0,0,0,0.00
2012-6-26,58,50,47,-100,-100,-100,0,0,100,20.00,20.00,8,1,8,0.00
2012-6-27,81,60,42,-100,-100,-100,0,0,100,20.00,20.00,11,3,11,0.00
2012-6-28,79,62,45,-100,-100,-100,0,0,100,20.00,20.00,14,4,14,0.00
2012-6-29,70,59,53,-100,-100,-100,0,0,100,20.00,20.00,15,6,15,0.00
2012-6-30,66,56,50,-100,-100,-100,0,0,100,20.00,20.00,9,4,9,0.00
2012-7-1,74,55,47,-100,-100,-100,0,0,100,20.00,20.00,8,2,8,0.00
2012-7-2,68,55,46,-100,-100,-100,0,0,100,20.00,20.00,7,2,7,0.00
2012-7-3,69,52,46,-100,-100,-100,0,0,100,20.00,20.00,23,6,23,0.00
2012-7-4,83,59,46,-100,-100,-100,0,0,100,20.00,20.00,14,4,14,0.00
2012-7-5,84,61,39,-100,-100,-100,0,0,100,20.00,20.00,13,3,13,0.00
2012-7-6,76,61,44,-100,-100,-100,0,0,100,20.00,20.00,15,5,15,0.00
2012-7-7,85,63,44,-100,-100,-100,0,0,100,20.00,20.00,4,0,7,0.00
2012-7-8,82,63,46,-100,-100,-100,0,0,100,20.00,20.00,0,0,7,0.00
2012-7-9,76,62,50,-100,-100,-100,0,0,100,20.00,20.00,0,0,7,0.00
2012-7-10,84,57,45,-100,-100,-100,0,0,100,20.00,20.00,11,2,11,0.00
2012-7-11,78,60,47,-100,-100,-100,0,0,100,20.00,20.00,13,4,13,0.00
2012-7-12,88,64,48,-100,-100,-100,0,0,100,20.00,20.00,10,3,10,0.00
2012-7-13,68,55,51,-100,-100,-100,0,0,100,20.00,20.00,7,1,7,0.00
2012-7-16,76,68,56,-100,-100,-100,0,0,100,20.00,20.00,14,5,14,0.00
2012-7-17,84,64,53,-100,-100,-100,0,0,100,20.00,20.00,11,3,11,0.00
2012-7-18,70,60,54,-100,-100,-100,0,0,100,20.00,20.00,11,4,11,0.00
2012-7-19,89,66,54,-100,-100,-100,0,0,100,20.00,20.00,13,4,13,0.00
2012-7-20,62,57,53,-100,-100,-100,0,0,100,20.00,20.00,14,5,14,0.00
2012-7-21,83,62,52,-100,-100,-100,0,0,100,20.00,20.00,9,4,9,0.00
2012-7-22,68,55,47,-100,-100,-100,0,0,100,20.00,20.00,13,4,13,0.00
2012-7-23,67,54,46,-100,-100,-100,0,0,100,20.00,20.00,14,5,14,0.00
2012-7-24,80,59,44,-100,-100,-100,0,0,100,20.00,20.00,14,4,14,0.00
2012-7-25,89,63,46,-100,-100,-100,0,0,100,20.00,20.00,14,3,14,0.00
2012-7-26,84,65,50,-100,-100,-100,0,0,100,20.00,20.00,12,4,12,0.00
2012-7-27,67,56,50,-100,-100,-100,0,0,100,20.00,20.00,11,3,11,0.00
2012-7-28,80,61,52,-100,-100,-100,0,0,100,20.00,20.00,10,3,10,0.00
2012-7-29,77,61,46,-100,-100,-100,0,0,100,20.00,20.00,10,3,10,0.00
2012-7-30,77,58,48,-100,-100,-100,0,0,100,20.00,20.00,10,2,10,0.00
2012-7-31,76,60,50,-100,-100,-100,0,0,100,20.00,20.00,12,4,12,0.00
2012-8-1,88,62,46,-100,-100,-100,0,0,100,20.00,20.00,11,4,11,0.00
2012-8-2,63,52,49,-100,-100,-100,0,0,100,20.00,20.00,7,2,7,0.00
2012-8-3,85,71,56,-100,-100,-100,0,0,100,20.00,20.00,14,5,14,0.00
2012-8-4,91,70,51,-100,-100,-100,0,0,100,20.00,20.00,11,3,11,0.00
2012-8-5,91,71,55,-100,-100,-100,0,0,100,20.00,20.00,11,4,11,0.00
2012-8-6,92,65,57,-100,-100,-100,0,0,100,20.00,20.00,12,4,12,0.00
2012-8-7,70,60,53,-100,-100,-100,0,0,100,20.00,20.00,9,3,9,0.00
2012-8-8,71,59,52,-100,-100,-100,0,0,100,20.00,20.00,12,3,12,0.00
2012-8-9,80,62,46,-100,-100,-100,0,0,100,20.00,20.00,12,4,12,0.00
2012-8-10,86,62,45,-100,-100,-100,0,0,100,20.00,20.00,12,3,12,0.00
2012-8-11,80,65,47,-100,-100,-100,0,0,100,20.00,20.00,12,3,12,0.00
2012-8-12,88,67,49,-100,-100,-100,0,0,100,20.00,20.00,12,3,12,0.00
2012-8-13,82,64,49,-100,-100,-100,0,0,100,20.00,20.00,14,3,14,0.00
2012-8-14,92,66,52,-100,-100,-100,0,0,100,20.00,20.00,12,4,12,0.00
2012-8-15,94,68,50,-100,-100,-100,0,0,100,20.00,20.00,13,3,13,0.00
2012-8-16,95,70,52,-100,-100,-100,0,0,100,20.00,20.00,12,3,12,0.00
2012-8-17,94,68,53,-100,-100,-100,0,0,100,20.00,20.00,12,3,12,0.00
2012-8-18,76,61,52,-100,-100,-100,0,0,100,20.00,20.00,12,3,12,0.00
2012-8-19,77,61,54,-100,-100,-100,0,0,100,20.00,20.00,10,3,10,0.00
2012-8-20,79,63,52,-100,-100,-100,0,0,100,20.00,20.00,10,3,10,0.00
2012-8-21,66,53,48,-100,-100,-100,0,0,100,20.00,20.00,3,0,3,0.00
2012-8-22,70,60,49,-100,-100,-100,0,0,100,20.00,20.00,11,4,12,0.00
2012-8-23,87,58,48,-100,-100,-100,0,0,100,20.00,20.00,18,5,18,0.00
2012-8-24,78,57,45,-100,-100,-100,0,0,100,20.00,20.00,12,3,12,0.00
2012-8-25,83,60,42,-100,-100,-100,0,0,100,20.00,20.00,11,3,12,0.00
2012-8-26,79,61,44,-100,-100,-100,0,0,100,20.00,20.00,15,4,15,0.00
2012-8-27,78,63,50,-100,-100,-100,0,0,100,20.00,20.00,12,5,12,0.00
2012-8-28,76,59,48,-100,-100,-100,0,0,100,20.00,20.00,11,3,12,0.00
2012-8-29,75,59,51,-100,-100,-100,0,0,100,20.00,20.00,11,2,12,0.00
2012-8-30,85,61,47,-100,-100,-100,0,0,100,20.00,20.00,14,3,14,0.00
2012-8-31,68,60,48,-100,-100,-100,0,0,100,20.00,20.00,13,5,13,0.00
2012-9-1,77,56,41,-100,-100,-100,0,0,100,20.00,20.00,12,3,12,0.00
2012-9-2,85,57,42,-100,-100,-100,0,0,100,20.00,20.00,10,2,12,0.00
2012-9-3,75,57,46,-100,-100,-100,0,0,100,20.00,20.00,14,4,14,0.00
2012-9-4,76,58,42,-100,-100,-100,0,0,100,20.00,20.00,14,3,14,0.00
2012-9-5,82,59,43,-100,-100,-100,0,0,100,20.00,20.00,12,3,12,0.00
2012-9-6,81,62,46,-100,-100,-100,0,0,100,20.00,20.00,12,2,12,0.00
2012-9-7,83,63,46,-100,-100,-100,0,0,100,20.00,20.00,14,3,14,0.00
2012-9-8,83,62,46,-100,-100,-100,0,0,100,20.00,20.00,13,3,13,0.00
2012-9-9,62,55,52,-100,-100,-100,0,0,100,20.00,20.00,16,6,16,0.00
2012-9-10,78,55,44,-100,-100,-100,0,0,100,20.00,20.00,20,6,20,0.00
2012-9-11,81,56,40,-100,-100,-100,0,0,100,20.00,20.00,14,4,14,0.00
2012-9-12,78,55,35,-100,-100,-100,0,0,100,20.00,20.00,10,3,12,0.00
2012-9-13,76,55,38,-100,-100,-100,0,0,100,20.00,20.00,13,3,13,0.00
2012-9-14,77,57,42,-100,-100,-100,0,0,100,20.00,20.00,11,2,12,0.00
2012-9-15,74,55,42,-100,-100,-100,0,0,100,20.00,20.00,11,3,12,0.00
2012-9-16,70,56,41,-100,-100,-100,0,0,100,20.00,20.00,13,2,13,0.00
2012-9-17,77,59,43,-100,-100,-100,0,0,100,20.00,20.00,12,3,12,0.00
2012-9-18,83,65,48,-100,-100,-100,0,0,100,20.00,20.00,7,3,12,0.00
2012-9-19,64,52,42,-100,-100,-100,0,0,100,20.00,20.00,13,3,13,0.00
2012-9-20,60,51,44,-100,-100,-100,0,0,100,20.00,20.00,12,3,12,0.00
2012-9-21,55,50,47,-100,-100,-100,0,0,100,20.00,20.00,6,1,12,0.00
2012-9-22,69,54,45,-100,-100,-100,0,0,100,20.00,20.00,6,1,12,0.00
2012-9-23,67,51,39,-100,-100,-100,0,0,100,20.00,20.00,12,2,12,0.00
2012-9-24,78,53,40,-100,-100,-100,0,0,100,20.00,20.00,11,3,12,0.00
2012-9-25,62,52,44,-100,-100,-100,0,0,100,20.00,20.00,8,2,8,0.00
2012-9-26,59,48,38,-100,-100,-100,0,0,100,20.00,20.00,10,2,10,0.00
2012-9-27,63,50,38,-100,-100,-100,0,0,100,20.00,20.00,10,2,10,0.00
2012-9-28,75,55,44,-100,-100,-100,0,0,100,20.00,20.00,7,2,7,0.00
2012-9-29,73,54,44,-100,-100,-100,0,0,100,20.00,20.00,11,3,11,0.00
2012-9-30,70,50,36,-100,-100,-100,0,0,100,20.00,20.00,12,3,12,0.00
2012-10-1,82,56,38,-100,-100,-100,0,0,100,20.00,20.00,17,3,17,0.00
2012-10-2,77,52,40,-100,-100,-100,0,0,100,20.00,20.00,21,5,21,0.00
2012-10-3,76,48,29,-100,-100,-100,0,0,100,20.00,20.00,14,3,14,0.00
2012-10-4,72,48,30,-100,-100,-100,0,0,100,20.00,20.00,12,2,12,0.00
2012-10-5,70,47,30,-100,-100,-100,0,0,100,20.00,20.00,10,2,10,0.00
2012-10-6,73,48,29,-100,-100,-100,0,0,100,20.00,20.00,10,2,10,0.00
2012-10-7,70,49,32,-100,-100,-100,0,0,100,20.00,20.00,10,2,10,0.00
2012-10-8,82,50,34,-100,-100,-100,0,0,100,20.00,20.00,7,2,7,0.00
2012-10-9,55,45,39,-100,-100,-100,0,0,100,20.00,20.00,6,1,6,0.00
2012-10-10,56,45,36,-100,-100,-100,0,0,100,20.00,20.00,9,2,9,0.00
2012-10-11,53,45,36,-100,-100,-100,0,0,100,20.00,20.00,8,2,8,0.00
2012-10-12,51,45,36,-100,-100,-100,0,0,100,20.00,20.00,17,7,17,0.00
2012-10-13,58,52,48,-100,-100,-100,0,0,100,20.00,20.00,20,9,20,0.00
2012-10-14,57,53,50,-100,-100,-100,0,0,100,20.00,20.00,18,8,18,0.00
2012-10-15,61,51,44,-100,-100,-100,0,0,100,20.00,20.00,18,5,18,0.00
2012-10-16,53,46,38,-100,-100,-100,0,0,100,20.00,20.00,36,6,36,0.00
2012-10-17,58,44,33,-100,-100,-100,0,0,100,20.00,20.00,7,2,7,0.00
2012-10-18,56,45,38,-100,-100,-100,0,0,100,20.00,20.00,11,2,11,0.00
2012-10-19,53,46,39,-100,-100,-100,0,0,100,20.00,20.00,24,6,24,0.00
2012-10-20,53,40,36,-100,-100,-100,0,0,100,20.00,20.00,15,7,15,0.00
2012-10-21,54,39,31,-100,-100,-100,0,0,100,20.00,20.00,14,6,14,0.00
2012-10-22,42,36,28,-100,-100,-100,0,0,100,20.00,20.00,18,3,18,0.00
2012-10-23,48,39,35,-100,-100,-100,0,0,100,20.00,20.00,16,6,16,0.00
2012-10-24,46,38,33,-100,-100,-100,0,0,100,20.00,20.00,9,2,9,0.00
2012-10-25,66,42,36,-100,-100,-100,0,0,100,20.00,20.00,6,1,6,0.00
2012-10-26,44,39,36,-100,-100,-100,0,0,100,20.00,20.00,12,3,12,0.00
2012-10-27,49,45,43,-100,-100,-100,0,0,100,20.00,20.00,15,6,15,0.00
2012-10-28,55,49,46,-100,-100,-100,0,0,100,20.00,20.00,12,2,12,0.00
2012-10-29,66,52,45,-100,-100,-100,0,0,100,20.00,20.00,33,8,33,0.00
2012-10-30,52,50,47,-100,-100,-100,0,0,100,20.00,20.00,9,3,9,0.00
2012-10-31,53,50,47,-100,-100,-100,0,0,100,20.00,20.00,10,4,10,0.00
2012-11-1,52,48,46,-100,-100,-100,0,0,100,20.00,20.00,11,5,11,0.00
2012-11-2,57,49,44,-100,-100,-100,0,0,100,20.00,20.00,12,3,12,0.00
2012-11-3,52,49,46,-100,-100,-100,0,0,100,20.00,20.00,17,6,17,0.00
2012-11-4,57,52,47,-100,-100,-100,0,0,100,20.00,20.00,22,8,22,0.00
2012-11-5,70,49,39,-100,-100,-100,0,0,100,20.00,20.00,8,1,8,0.00
2012-11-6,50,44,37,-100,-100,-100,0,0,100,20.00,20.00,24,4,24,0.00
2012-11-7,52,40,32,-100,-100,-100,0,0,100,20.00,20.00,8,3,8,0.00
2012-11-8,63,38,27,-100,-100,-100,0,0,100,20.00,20.00,12,3,12,0.00
2012-11-9,50,32,24,-100,-100,-100,0,0,100,20.00,20.00,7,1,7,0.00
2012-11-10,48,30,22,-100,-100,-100,0,0,100,20.00,20.00,5,1,6,0.00
2012-11-11,38,31,23,-100,-100,-100,0,0,100,20.00,20.00,15,3,15,0.00
2012-11-12,42,38,34,-100,-100,-100,0,0,100,20.00,20.00,15,4,15,0.00
2012-11-13,45,42,39,-100,-100,-100,0,0,100,20.00,20.00,8,4,8,0.00
2012-11-14,57,42,29,-100,-100,-100,0,0,100,20.00,20.00,8,2,8,0.00
2012-11-15,56,34,27,-100,-100,-100,0,0,100,20.00,20.00,7,1,7,0.00
2012-11-16,41,35,27,-100,-100,-100,0,0,100,20.00,20.00,12,3,12,0.00
2012-11-17,47,41,37,-100,-100,-100,0,0,100,20.00,20.00,20,8,20,0.00
2012-11-18,42,39,37,-100,-100,-100,0,0,100,20.00,20.00,29,9,29,0.00
2012-11-19,48,43,39,-100,-100,-100,0,0,100,20.00,20.00,34,10,34,0.00
2012-11-20,47,41,38,-100,-100,-100,0,0,100,20.00,20.00,19,7,19,0.00
2012-11-21,41,38,34,-100,-100,-100,0,0,100,20.00,20.00,20,6,20,0.00
2012-11-22,42,37,31,-100,-100,-100,0,0,100,20.00,20.00,14,3,14,0.00
2012-11-23,42,40,38,-100,-100,-100,0,0,100,20.00,20.00,17,5,17,0.00
2012-11-24,60,38,30,-100,-100,-100,0,0,100,20.00,20.00,6,1,14,0.00
2012-11-25,39,32,25,-100,-100,-100,0,0,100,20.00,20.00,6,1,14,0.00
2012-11-26,53,32,23,-100,-100,-100,0,0,100,20.00,20.00,7,1,14,0.00
2012-11-27,47,34,26,-100,-100,-100,0,0,100,20.00,20.00,6,1,14,0.00
2012-11-28,41,36,29,-100,-100,-100,0,0,100,20.00,20.00,16,3,16,0.00
2012-11-29,45,41,38,-100,-100,-100,0,0,100,20.00,20.00,22,5,22,0.00
2012-11-30,46,42,39,-100,-100,-100,0,0,100,20.00,20.00,16,6,16,0.00
2012-12-1,49,42,39,-100,-100,-100,0,0,100,20.00,20.00,20,8,20,0.00
2012-12-2,42,40,37,-100,-100,-100,0,0,100,20.00,20.00,21,9,21,0.00
2012-12-3,43,40,38,-100,-100,-100,0,0,100,20.00,20.00,21,8,21,0.00
2012-12-4,51,43,38,-100,-100,-100,0,0,100,20.00,20.00,24,11,24,0.00
2012-12-5,48,39,33,-100,-100,-100,0,0,100,20.00,20.00,15,6,15,0.00
2012-12-6,41,37,33,-100,-100,-100,0,0,100,20.00,20.00,14,5,14,0.00
2012-12-7,41,38,34,-100,-100,-100,0,0,100,20.00,20.00,17,5,17,0.00
2012-12-10,38,36,34,-100,-100,-100,0,0,100,20.00,20.00,8,3,14,0.00
2012-12-11,39,36,34,-100,-100,-100,0,0,100,20.00,20.00,19,8,19,0.00
2012-12-12,38,36,33,-100,-100,-100,0,0,100,20.00,20.00,7,2,14,0.00
2012-12-13,37,34,32,-100,-100,-100,0,0,100,20.00,20.00,11,4,14,0.00
2012-12-14,45,33,26,-100,-100,-100,0,0,100,20.00,20.00,10,3,14,0.00
2012-12-15,34,30,25,-100,-100,-100,0,0,100,20.00,20.00,18,6,18,0.00
2012-12-16,35,33,31,-100,-100,-100,0,0,100,20.00,20.00,25,8,25,0.00
2012-12-17,38,36,34,-100,-100,-100,0,0,100,20.00,20.00,23,9,23,0.00
2012-12-18,34,31,29,-100,-100,-100,0,0,100,20.00,20.00,13,6,14,0.00
2012-12-19,34,31,28,-100,-100,-100,0,0,100,20.00,20.00,20,8,20,0.00
2012-12-20,36,34,28,-100,-100,-100,0,0,100,20.00,20.00,18,7,18,0.00
2012-12-21,41,30,24,-100,-100,-100,0,0,100,20.00,20.00,7,2,14,0.00
2012-12-22,45,34,29,-100,-100,-100,0,0,100,20.00,20.00,20,5,20,0.00
2012-12-23,44,36,32,-100,-100,-100,0,0,100,20.00,20.00,10,3,14,0.00
2012-12-24,42,34,31,-100,-100,-100,0,0,100,20.00,20.00,9,3,14,0.00
2012-12-25,36,33,30,-100,-100,-100,0,0,100,20.00,20.00,21,6,21,0.00
2012-12-26,40,35,32,-100,-100,-100,0,0,100,20.00,20.00,16,7,16,0.00
2012-12-27,38,35,34,-100,-100,-100,0,0,100,20.00,20.00,10,4,14,0.00
2012-12-28,46,36,31,-100,-100,-100,0,0,100,20.00,20.00,7,1,14,0.00
2012-12-29,37,33,30,-100,-100,-100,0,0,100,20.00,20.00,8,1,14,0.00
2012-12-30,34,30,26,-100,-100,-100,0,0,100,20.00,20.00,7,2,14,0.00
2012-12-31,38,28,25,-100,-100,-100,0,0,100,20.00,20.00,5,1,14,0.00